sensor_id;sensor_type;location;lat;lon;timestamp;temperature;humidity
60848;DHT22;46681;47.696;9.140;2022-09-12T00:01:37;17.00;59.80
60848;DHT22;46681;47.696;9.140;2022-09-12T00:04:02;17.00;59.40
60848;DHT22;46681;47.696;9.140;2022-09-12T00:06:30;16.90;59.30
60848;DHT22;46681;47.696;9.140;2022-09-12T00:09:06;16.90;59.20
60848;DHT22;46681;47.696;9.140;2022-09-12T00:11:36;16.90;59.30
60848;DHT22;46681;47.696;9.140;2022-09-12T00:14:06;16.90;59.30
60848;DHT22;46681;47.696;9.140;2022-09-12T00:16:35;16.90;59.80
60848;DHT22;46681;47.696;9.140;2022-09-12T00:19:02;16.90;59.40
60848;DHT22;46681;47.696;9.140;2022-09-12T00:21:28;16.80;59.40
60848;DHT22;46681;47.696;9.140;2022-09-12T00:23:54;16.80;59.40
60848;DHT22;46681;47.696;9.140;2022-09-12T00:26:21;16.80;59.40
60848;DHT22;46681;47.696;9.140;2022-09-12T00:28:51;16.80;59.50
60848;DHT22;46681;47.696;9.140;2022-09-12T00:31:22;16.70;59.40
60848;DHT22;46681;47.696;9.140;2022-09-12T00:33:47;16.70;59.30
60848;DHT22;46681;47.696;9.140;2022-09-12T00:36:18;16.70;59.40
60848;DHT22;46681;47.696;9.140;2022-09-12T00:38:45;16.60;59.30
60848;DHT22;46681;47.696;9.140;2022-09-12T00:41:41;16.60;59.30
60848;DHT22;46681;47.696;9.140;2022-09-12T00:52:06;16.60;59.60
60848;DHT22;46681;47.696;9.140;2022-09-12T00:57:11;16.50;59.50
60848;DHT22;46681;47.696;9.140;2022-09-12T00:59:53;16.50;59.70
60848;DHT22;46681;47.696;9.140;2022-09-12T01:02:22;16.50;59.70
60848;DHT22;46681;47.696;9.140;2022-09-12T01:04:48;16.50;59.80
60848;DHT22;46681;47.696;9.140;2022-09-12T01:07:14;16.50;59.90
60848;DHT22;46681;47.696;9.140;2022-09-12T01:09:44;16.50;60.00
60848;DHT22;46681;47.696;9.140;2022-09-12T01:12:13;16.50;60.00
60848;DHT22;46681;47.696;9.140;2022-09-12T01:14:39;16.40;60.00
60848;DHT22;46681;47.696;9.140;2022-09-12T01:17:05;16.40;60.00
60848;DHT22;46681;47.696;9.140;2022-09-12T01:31:05;16.30;59.80
60848;DHT22;46681;47.696;9.140;2022-09-12T01:34:01;16.30;59.90
60848;DHT22;46681;47.696;9.140;2022-09-12T01:36:38;16.30;59.80
60848;DHT22;46681;47.696;9.140;2022-09-12T01:39:30;16.30;59.80
60848;DHT22;46681;47.696;9.140;2022-09-12T01:44:52;16.20;59.80
60848;DHT22;46681;47.696;9.140;2022-09-12T01:47:33;16.20;60.10
60848;DHT22;46681;47.696;9.140;2022-09-12T01:50:08;16.20;60.30
60848;DHT22;46681;47.696;9.140;2022-09-12T01:55:32;16.20;60.70
60848;DHT22;46681;47.696;9.140;2022-09-12T01:58:07;16.20;60.50
60848;DHT22;46681;47.696;9.140;2022-09-12T02:00:44;16.20;60.80
60848;DHT22;46681;47.696;9.140;2022-09-12T02:03:30;16.10;60.70
60848;DHT22;46681;47.696;9.140;2022-09-12T02:06:19;16.10;60.90
60848;DHT22;46681;47.696;9.140;2022-09-12T02:08:57;16.10;60.90
60848;DHT22;46681;47.696;9.140;2022-09-12T02:11:27;16.10;61.10
60848;DHT22;46681;47.696;9.140;2022-09-12T02:14:28;16.10;61.50
60848;DHT22;46681;47.696;9.140;2022-09-12T02:16:57;16.10;61.20
60848;DHT22;46681;47.696;9.140;2022-09-12T02:19:28;16.10;61.10
60848;DHT22;46681;47.696;9.140;2022-09-12T02:22:01;16.10;61.20
60848;DHT22;46681;47.696;9.140;2022-09-12T02:24:35;16.00;61.20
60848;DHT22;46681;47.696;9.140;2022-09-12T02:27:09;16.00;61.20
60848;DHT22;46681;47.696;9.140;2022-09-12T02:29:39;16.00;61.20
60848;DHT22;46681;47.696;9.140;2022-09-12T02:35:03;16.00;61.20
60848;DHT22;46681;47.696;9.140;2022-09-12T02:40:29;15.90;61.20
60848;DHT22;46681;47.696;9.140;2022-09-12T02:42:58;15.90;61.30
60848;DHT22;46681;47.696;9.140;2022-09-12T02:45:24;15.90;61.30
60848;DHT22;46681;47.696;9.140;2022-09-12T02:47:56;15.90;61.40
60848;DHT22;46681;47.696;9.140;2022-09-12T02:50:25;15.90;61.30
60848;DHT22;46681;47.696;9.140;2022-09-12T02:52:57;15.90;61.30
60848;DHT22;46681;47.696;9.140;2022-09-12T02:55:24;15.90;61.20
60848;DHT22;46681;47.696;9.140;2022-09-12T02:57:53;15.80;61.00
60848;DHT22;46681;47.696;9.140;2022-09-12T03:00:22;15.80;61.10
60848;DHT22;46681;47.696;9.140;2022-09-12T03:27:17;15.60;60.80
60848;DHT22;46681;47.696;9.140;2022-09-12T03:29:47;15.60;61.00
60848;DHT22;46681;47.696;9.140;2022-09-12T03:32:16;15.60;61.00
60848;DHT22;46681;47.696;9.140;2022-09-12T03:34:42;15.60;61.30
60848;DHT22;46681;47.696;9.140;2022-09-12T03:37:10;15.50;61.40
60848;DHT22;46681;47.696;9.140;2022-09-12T03:39:38;15.50;62.50
60848;DHT22;46681;47.696;9.140;2022-09-12T03:42:04;15.50;61.90
60848;DHT22;46681;47.696;9.140;2022-09-12T03:44:30;15.50;61.70
60848;DHT22;46681;47.696;9.140;2022-09-12T03:46:55;15.50;62.00
60848;DHT22;46681;47.696;9.140;2022-09-12T03:49:24;15.50;62.10
60848;DHT22;46681;47.696;9.140;2022-09-12T03:51:52;15.40;61.70
60848;DHT22;46681;47.696;9.140;2022-09-12T03:54:23;15.40;62.00
60848;DHT22;46681;47.696;9.140;2022-09-12T03:56:53;15.40;62.00
60848;DHT22;46681;47.696;9.140;2022-09-12T03:59:20;15.40;61.90
60848;DHT22;46681;47.696;9.140;2022-09-12T04:01:45;15.30;61.90
60848;DHT22;46681;47.696;9.140;2022-09-12T04:04:11;15.40;62.00
60848;DHT22;46681;47.696;9.140;2022-09-12T04:06:39;15.30;62.20
60848;DHT22;46681;47.696;9.140;2022-09-12T04:09:05;15.30;62.30
60848;DHT22;46681;47.696;9.140;2022-09-12T04:11:30;15.30;62.40
60848;DHT22;46681;47.696;9.140;2022-09-12T04:13:58;15.30;62.50
60848;DHT22;46681;47.696;9.140;2022-09-12T04:16:27;15.30;62.40
60848;DHT22;46681;47.696;9.140;2022-09-12T04:18:53;15.20;62.30
60848;DHT22;46681;47.696;9.140;2022-09-12T04:21:20;15.20;62.30
60848;DHT22;46681;47.696;9.140;2022-09-12T04:23:51;15.20;62.40
60848;DHT22;46681;47.696;9.140;2022-09-12T04:26:22;15.20;62.30
60848;DHT22;46681;47.696;9.140;2022-09-12T04:28:53;15.20;62.30
60848;DHT22;46681;47.696;9.140;2022-09-12T04:31:22;15.20;62.30
60848;DHT22;46681;47.696;9.140;2022-09-12T04:34:00;15.20;62.50
60848;DHT22;46681;47.696;9.140;2022-09-12T04:36:32;15.20;62.50
60848;DHT22;46681;47.696;9.140;2022-09-12T04:39:06;15.20;63.10
60848;DHT22;46681;47.696;9.140;2022-09-12T04:41:37;15.20;63.30
60848;DHT22;46681;47.696;9.140;2022-09-12T04:44:14;15.30;63.30
60848;DHT22;46681;47.696;9.140;2022-09-12T04:46:45;15.30;63.30
60848;DHT22;46681;47.696;9.140;2022-09-12T04:49:14;15.40;63.30
60848;DHT22;46681;47.696;9.140;2022-09-12T04:51:46;15.40;63.40
60848;DHT22;46681;47.696;9.140;2022-09-12T04:54:18;15.50;63.40
60848;DHT22;46681;47.696;9.140;2022-09-12T04:56:48;15.50;63.30
60848;DHT22;46681;47.696;9.140;2022-09-12T04:59:19;15.50;63.20
60848;DHT22;46681;47.696;9.140;2022-09-12T05:01:47;15.60;63.20
60848;DHT22;46681;47.696;9.140;2022-09-12T05:04:15;15.60;63.20
60848;DHT22;46681;47.696;9.140;2022-09-12T05:06:45;15.60;63.20
60848;DHT22;46681;47.696;9.140;2022-09-12T05:09:13;15.60;63.40
60848;DHT22;46681;47.696;9.140;2022-09-12T05:11:42;15.70;65.00
60848;DHT22;46681;47.696;9.140;2022-09-12T05:14:11;15.80;69.10
60848;DHT22;46681;47.696;9.140;2022-09-12T05:16:39;15.90;68.50
60848;DHT22;46681;47.696;9.140;2022-09-12T05:19:24;16.00;66.20
60848;DHT22;46681;47.696;9.140;2022-09-12T05:22:00;16.10;65.30
60848;DHT22;46681;47.696;9.140;2022-09-12T05:24:35;16.10;65.20
60848;DHT22;46681;47.696;9.140;2022-09-12T05:27:15;16.10;64.60
60848;DHT22;46681;47.696;9.140;2022-09-12T05:29:47;16.00;64.30
60848;DHT22;46681;47.696;9.140;2022-09-12T05:32:20;15.90;63.80
60848;DHT22;46681;47.696;9.140;2022-09-12T05:34:46;15.90;63.60
60848;DHT22;46681;47.696;9.140;2022-09-12T05:37:23;15.80;63.10
60848;DHT22;46681;47.696;9.140;2022-09-12T05:39:53;15.70;62.90
60848;DHT22;46681;47.696;9.140;2022-09-12T05:42:23;15.60;62.50
60848;DHT22;46681;47.696;9.140;2022-09-12T05:44:59;15.60;62.60
60848;DHT22;46681;47.696;9.140;2022-09-12T05:47:47;15.50;62.80
60848;DHT22;46681;47.696;9.140;2022-09-12T05:50:33;15.50;62.90
60848;DHT22;46681;47.696;9.140;2022-09-12T05:53:07;15.50;63.90
60848;DHT22;46681;47.696;9.140;2022-09-12T05:55:32;15.50;64.30
60848;DHT22;46681;47.696;9.140;2022-09-12T05:58:00;15.50;62.90
60848;DHT22;46681;47.696;9.140;2022-09-12T06:00:34;15.50;62.30
60848;DHT22;46681;47.696;9.140;2022-09-12T06:03:00;15.50;62.10
60848;DHT22;46681;47.696;9.140;2022-09-12T06:05:33;15.50;61.80
60848;DHT22;46681;47.696;9.140;2022-09-12T06:08:01;15.40;61.60
60848;DHT22;46681;47.696;9.140;2022-09-12T06:10:31;15.40;61.60
60848;DHT22;46681;47.696;9.140;2022-09-12T06:12:56;15.40;61.60
60848;DHT22;46681;47.696;9.140;2022-09-12T06:15:24;15.40;61.60
60848;DHT22;46681;47.696;9.140;2022-09-12T06:17:55;15.40;61.50
60848;DHT22;46681;47.696;9.140;2022-09-12T06:20:23;15.40;63.30
60848;DHT22;46681;47.696;9.140;2022-09-12T06:22:53;15.40;62.60
60848;DHT22;46681;47.696;9.140;2022-09-12T06:25:23;15.40;62.20
60848;DHT22;46681;47.696;9.140;2022-09-12T06:27:52;15.40;61.90
60848;DHT22;46681;47.696;9.140;2022-09-12T06:30:18;15.40;61.80
60848;DHT22;46681;47.696;9.140;2022-09-12T06:32:51;15.40;62.20
60848;DHT22;46681;47.696;9.140;2022-09-12T06:35:22;15.40;61.60
60848;DHT22;46681;47.696;9.140;2022-09-12T06:37:51;15.40;61.60
60848;DHT22;46681;47.696;9.140;2022-09-12T06:40:18;15.40;61.80
60848;DHT22;46681;47.696;9.140;2022-09-12T06:42:45;15.40;61.80
60848;DHT22;46681;47.696;9.140;2022-09-12T06:45:14;15.40;61.90
60848;DHT22;46681;47.696;9.140;2022-09-12T06:47:45;15.40;62.50
60848;DHT22;46681;47.696;9.140;2022-09-12T06:50:13;15.40;62.10
60848;DHT22;46681;47.696;9.140;2022-09-12T06:52:39;15.40;62.20
60848;DHT22;46681;47.696;9.140;2022-09-12T06:55:08;15.50;62.30
60848;DHT22;46681;47.696;9.140;2022-09-12T06:57:36;15.50;62.40
60848;DHT22;46681;47.696;9.140;2022-09-12T07:00:11;15.50;62.50
60848;DHT22;46681;47.696;9.140;2022-09-12T07:02:44;15.50;62.70
60848;DHT22;46681;47.696;9.140;2022-09-12T07:05:12;15.50;62.70
60848;DHT22;46681;47.696;9.140;2022-09-12T07:07:41;15.50;62.80
60848;DHT22;46681;47.696;9.140;2022-09-12T07:10:17;15.60;62.90
60848;DHT22;46681;47.696;9.140;2022-09-12T07:12:43;15.60;62.80
60848;DHT22;46681;47.696;9.140;2022-09-12T07:15:09;15.70;63.10
60848;DHT22;46681;47.696;9.140;2022-09-12T07:17:36;15.70;63.00
60848;DHT22;46681;47.696;9.140;2022-09-12T07:20:15;15.80;63.30
60848;DHT22;46681;47.696;9.140;2022-09-12T07:22:47;15.80;63.00
60848;DHT22;46681;47.696;9.140;2022-09-12T07:25:18;15.90;63.20
60848;DHT22;46681;47.696;9.140;2022-09-12T07:27:43;15.90;63.00
60848;DHT22;46681;47.696;9.140;2022-09-12T07:30:10;16.00;63.20
60848;DHT22;46681;47.696;9.140;2022-09-12T07:32:47;16.00;63.10
60848;DHT22;46681;47.696;9.140;2022-09-12T07:35:19;16.10;63.30
60848;DHT22;46681;47.696;9.140;2022-09-12T07:37:46;16.20;63.40
60848;DHT22;46681;47.696;9.140;2022-09-12T07:40:28;16.30;63.30
60848;DHT22;46681;47.696;9.140;2022-09-12T07:43:04;16.40;64.20
60848;DHT22;46681;47.696;9.140;2022-09-12T07:45:34;16.50;66.30
60848;DHT22;46681;47.696;9.140;2022-09-12T07:48:08;16.70;66.60
60848;DHT22;46681;47.696;9.140;2022-09-12T07:50:36;16.80;66.70
60848;DHT22;46681;47.696;9.140;2022-09-12T07:53:08;16.90;66.30
60848;DHT22;46681;47.696;9.140;2022-09-12T07:55:41;17.00;64.50
60848;DHT22;46681;47.696;9.140;2022-09-12T07:58:12;17.20;63.80
60848;DHT22;46681;47.696;9.140;2022-09-12T08:00:50;17.40;62.90
60848;DHT22;46681;47.696;9.140;2022-09-12T08:03:21;17.50;61.80
60848;DHT22;46681;47.696;9.140;2022-09-12T08:05:48;17.70;61.30
60848;DHT22;46681;47.696;9.140;2022-09-12T08:08:35;17.80;61.70
60848;DHT22;46681;47.696;9.140;2022-09-12T08:11:06;18.00;60.80
60848;DHT22;46681;47.696;9.140;2022-09-12T08:13:44;18.20;60.70
60848;DHT22;46681;47.696;9.140;2022-09-12T08:16:28;18.40;60.90
60848;DHT22;46681;47.696;9.140;2022-09-12T08:19:06;18.60;60.20
60848;DHT22;46681;47.696;9.140;2022-09-12T08:21:34;18.70;60.00
60848;DHT22;46681;47.696;9.140;2022-09-12T08:24:09;18.90;59.30
60848;DHT22;46681;47.696;9.140;2022-09-12T08:26:37;19.10;59.30
60848;DHT22;46681;47.696;9.140;2022-09-12T08:29:15;19.20;59.00
60848;DHT22;46681;47.696;9.140;2022-09-12T08:31:46;19.30;58.60
60848;DHT22;46681;47.696;9.140;2022-09-12T08:34:13;19.50;58.30
60848;DHT22;46681;47.696;9.140;2022-09-12T08:36:44;19.60;58.00
60848;DHT22;46681;47.696;9.140;2022-09-12T08:39:15;19.70;57.60
60848;DHT22;46681;47.696;9.140;2022-09-12T08:42:02;19.90;57.30
60848;DHT22;46681;47.696;9.140;2022-09-12T08:55:35;20.70;55.70
60848;DHT22;46681;47.696;9.140;2022-09-12T08:58:18;20.90;55.80
60848;DHT22;46681;47.696;9.140;2022-09-12T09:00:57;21.00;55.10
60848;DHT22;46681;47.696;9.140;2022-09-12T09:03:41;21.20;55.30
60848;DHT22;46681;47.696;9.140;2022-09-12T09:09:09;21.50;54.30
60848;DHT22;46681;47.696;9.140;2022-09-12T09:12:18;21.60;54.10
60848;DHT22;46681;47.696;9.140;2022-09-12T09:20:27;22.10;53.80
60848;DHT22;46681;47.696;9.140;2022-09-12T09:26:08;22.40;53.20
60848;DHT22;46681;47.696;9.140;2022-09-12T09:29:12;22.60;52.90
60848;DHT22;46681;47.696;9.140;2022-09-12T09:31:39;22.70;52.70
60848;DHT22;46681;47.696;9.140;2022-09-12T09:34:29;22.90;52.50
60848;DHT22;46681;47.696;9.140;2022-09-12T09:39:57;23.20;52.10
60848;DHT22;46681;47.696;9.140;2022-09-12T09:45:25;23.50;51.70
60848;DHT22;46681;47.696;9.140;2022-09-12T09:48:39;23.60;51.60
60848;DHT22;46681;47.696;9.140;2022-09-12T09:51:20;23.80;51.20
60848;DHT22;46681;47.696;9.140;2022-09-12T09:54:30;24.00;51.00
60848;DHT22;46681;47.696;9.140;2022-09-12T09:57:35;24.20;50.80
60848;DHT22;46681;47.696;9.140;2022-09-12T09:59:53;24.30;50.90
60848;DHT22;46681;47.696;9.140;2022-09-12T10:02:28;24.50;50.00
60848;DHT22;46681;47.696;9.140;2022-09-12T10:05:06;24.70;49.50
60848;DHT22;46681;47.696;9.140;2022-09-12T10:07:33;24.90;49.40
60848;DHT22;46681;47.696;9.140;2022-09-12T10:10:18;25.10;49.00
60848;DHT22;46681;47.696;9.140;2022-09-12T10:13:22;25.30;48.60
60848;DHT22;46681;47.696;9.140;2022-09-12T10:16:04;25.50;48.40
60848;DHT22;46681;47.696;9.140;2022-09-12T10:18:40;25.70;48.10
60848;DHT22;46681;47.696;9.140;2022-09-12T10:21:46;26.10;47.60
60848;DHT22;46681;47.696;9.140;2022-09-12T10:24:41;26.20;47.10
60848;DHT22;46681;47.696;9.140;2022-09-12T10:27:29;26.50;46.80
60848;DHT22;46681;47.696;9.140;2022-09-12T10:30:18;26.60;46.50
60848;DHT22;46681;47.696;9.140;2022-09-12T10:33:09;26.90;46.10
60848;DHT22;46681;47.696;9.140;2022-09-12T10:35:54;27.10;45.70
60848;DHT22;46681;47.696;9.140;2022-09-12T10:38:33;27.10;45.30
60848;DHT22;46681;47.696;9.140;2022-09-12T10:41:17;27.20;45.20
60848;DHT22;46681;47.696;9.140;2022-09-12T10:44:06;27.30;44.80
60848;DHT22;46681;47.696;9.140;2022-09-12T10:46:47;27.50;44.40
60848;DHT22;46681;47.696;9.140;2022-09-12T10:49:28;27.70;44.30
60848;DHT22;46681;47.696;9.140;2022-09-12T10:52:26;27.80;44.00
60848;DHT22;46681;47.696;9.140;2022-09-12T10:55:00;27.70;44.00
60848;DHT22;46681;47.696;9.140;2022-09-12T10:58:27;27.80;44.20
60848;DHT22;46681;47.696;9.140;2022-09-12T11:01:14;27.70;44.10
60848;DHT22;46681;47.696;9.140;2022-09-12T11:07:27;27.80;43.90
60848;DHT22;46681;47.696;9.140;2022-09-12T11:30:31;28.70;42.70
60848;DHT22;46681;47.696;9.140;2022-09-12T11:39:23;29.10;42.20
60848;DHT22;46681;47.696;9.140;2022-09-12T11:42:00;29.30;42.00
60848;DHT22;46681;47.696;9.140;2022-09-12T11:44:59;29.30;42.10
60848;DHT22;46681;47.696;9.140;2022-09-12T11:47:37;29.10;42.20
60848;DHT22;46681;47.696;9.140;2022-09-12T11:50:25;29.00;42.50
60848;DHT22;46681;47.696;9.140;2022-09-12T11:53:10;29.00;42.20
60848;DHT22;46681;47.696;9.140;2022-09-12T11:56:06;29.10;42.00
60848;DHT22;46681;47.696;9.140;2022-09-12T11:58:58;29.20;42.10
60848;DHT22;46681;47.696;9.140;2022-09-12T12:01:39;29.20;42.10
60848;DHT22;46681;47.696;9.140;2022-09-12T12:04:23;29.20;42.20
60848;DHT22;46681;47.696;9.140;2022-09-12T12:07:08;29.10;42.30
60848;DHT22;46681;47.696;9.140;2022-09-12T12:09:58;29.10;42.20
60848;DHT22;46681;47.696;9.140;2022-09-12T12:12:43;29.10;42.20
60848;DHT22;46681;47.696;9.140;2022-09-12T12:15:16;29.10;42.20
60848;DHT22;46681;47.696;9.140;2022-09-12T12:17:58;29.10;42.30
60848;DHT22;46681;47.696;9.140;2022-09-12T12:20:30;29.10;42.30
60848;DHT22;46681;47.696;9.140;2022-09-12T12:23:02;29.20;42.20
60848;DHT22;46681;47.696;9.140;2022-09-12T12:47:46;30.10;41.10
60848;DHT22;46681;47.696;9.140;2022-09-12T12:50:34;30.10;41.20
60848;DHT22;46681;47.696;9.140;2022-09-12T12:53:24;30.20;41.20
60848;DHT22;46681;47.696;9.140;2022-09-12T12:56:20;30.30;41.10
60848;DHT22;46681;47.696;9.140;2022-09-12T12:59:18;30.40;41.00
60848;DHT22;46681;47.696;9.140;2022-09-12T13:01:56;30.40;41.10
60848;DHT22;46681;47.696;9.140;2022-09-12T13:04:32;30.50;40.90
60848;DHT22;46681;47.696;9.140;2022-09-12T13:09:54;30.60;40.50
60848;DHT22;46681;47.696;9.140;2022-09-12T13:12:49;30.70;40.50
60848;DHT22;46681;47.696;9.140;2022-09-12T13:18:45;30.90;40.30
60848;DHT22;46681;47.696;9.140;2022-09-12T13:21:20;30.90;40.20
60848;DHT22;46681;47.696;9.140;2022-09-12T13:26:57;31.00;40.20
60848;DHT22;46681;47.696;9.140;2022-09-12T13:29:32;31.00;40.20
60848;DHT22;46681;47.696;9.140;2022-09-12T13:32:07;31.10;40.10
60848;DHT22;46681;47.696;9.140;2022-09-12T13:35:06;31.10;39.90
60848;DHT22;46681;47.696;9.140;2022-09-12T13:37:58;30.90;39.80
60848;DHT22;46681;47.696;9.140;2022-09-12T13:40:56;30.60;40.10
60848;DHT22;46681;47.696;9.140;2022-09-12T13:43:46;30.60;40.30
60848;DHT22;46681;47.696;9.140;2022-09-12T13:46:40;30.60;40.40
60848;DHT22;46681;47.696;9.140;2022-09-12T13:49:33;30.70;40.30
60848;DHT22;46681;47.696;9.140;2022-09-12T13:54:26;30.80;39.60
60848;DHT22;46681;47.696;9.140;2022-09-12T13:57:05;30.70;39.90
60848;DHT22;46681;47.696;9.140;2022-09-12T13:59:57;30.80;40.30
60848;DHT22;46681;47.696;9.140;2022-09-12T14:02:32;30.60;39.90
60848;DHT22;46681;47.696;9.140;2022-09-12T14:05:41;30.60;38.90
60848;DHT22;46681;47.696;9.140;2022-09-12T14:08:13;30.70;39.00
60848;DHT22;46681;47.696;9.140;2022-09-12T14:10:52;30.70;39.40
60848;DHT22;46681;47.696;9.140;2022-09-12T14:13:27;30.70;39.80
60848;DHT22;46681;47.696;9.140;2022-09-12T14:15:55;30.70;39.80
60848;DHT22;46681;47.696;9.140;2022-09-12T14:18:53;30.60;39.70
60848;DHT22;46681;47.696;9.140;2022-09-12T14:21:36;30.70;40.00
60848;DHT22;46681;47.696;9.140;2022-09-12T14:24:23;30.60;39.80
60848;DHT22;46681;47.696;9.140;2022-09-12T14:26:59;30.50;40.00
60848;DHT22;46681;47.696;9.140;2022-09-12T14:29:38;30.20;40.10
60848;DHT22;46681;47.696;9.140;2022-09-12T14:32:21;29.80;40.40
60848;DHT22;46681;47.696;9.140;2022-09-12T14:37:38;29.60;40.80
60848;DHT22;46681;47.696;9.140;2022-09-12T14:40:24;29.40;40.70
60848;DHT22;46681;47.696;9.140;2022-09-12T14:42:56;29.20;40.50
60848;DHT22;46681;47.696;9.140;2022-09-12T14:45:37;29.10;40.90
60848;DHT22;46681;47.696;9.140;2022-09-12T14:48:21;29.20;41.40
60848;DHT22;46681;47.696;9.140;2022-09-12T14:51:01;29.20;41.30
60848;DHT22;46681;47.696;9.140;2022-09-12T14:53:34;29.20;41.30
60848;DHT22;46681;47.696;9.140;2022-09-12T14:56:10;29.00;41.10
60848;DHT22;46681;47.696;9.140;2022-09-12T14:58:41;28.60;41.70
60848;DHT22;46681;47.696;9.140;2022-09-12T15:06:31;27.90;42.40
60848;DHT22;46681;47.696;9.140;2022-09-12T15:09:19;27.70;42.70
60848;DHT22;46681;47.696;9.140;2022-09-12T15:12:22;27.50;43.10
60848;DHT22;46681;47.696;9.140;2022-09-12T15:15:39;27.30;43.30
60848;DHT22;46681;47.696;9.140;2022-09-12T15:18:18;27.20;43.00
60848;DHT22;46681;47.696;9.140;2022-09-12T15:20:50;27.00;43.60
60848;DHT22;46681;47.696;9.140;2022-09-12T15:23:33;26.80;44.10
60848;DHT22;46681;47.696;9.140;2022-09-12T15:26:08;26.80;44.10
60848;DHT22;46681;47.696;9.140;2022-09-12T15:28:48;26.60;44.60
60848;DHT22;46681;47.696;9.140;2022-09-12T15:33:48;26.40;44.70
60848;DHT22;46681;47.696;9.140;2022-09-12T15:36:24;26.30;45.00
60848;DHT22;46681;47.696;9.140;2022-09-12T15:38:52;26.20;45.20
60848;DHT22;46681;47.696;9.140;2022-09-12T15:41:22;26.20;44.70
60848;DHT22;46681;47.696;9.140;2022-09-12T15:43:54;26.10;44.90
60848;DHT22;46681;47.696;9.140;2022-09-12T15:46:26;26.00;45.20
60848;DHT22;46681;47.696;9.140;2022-09-12T15:48:54;26.00;45.40
60848;DHT22;46681;47.696;9.140;2022-09-12T15:51:24;26.00;45.60
60848;DHT22;46681;47.696;9.140;2022-09-12T15:54:00;25.90;45.30
60848;DHT22;46681;47.696;9.140;2022-09-12T15:56:34;25.80;45.90
60848;DHT22;46681;47.696;9.140;2022-09-12T15:59:00;25.80;45.80
60848;DHT22;46681;47.696;9.140;2022-09-12T16:01:27;25.70;46.10
60848;DHT22;46681;47.696;9.140;2022-09-12T16:04:05;25.60;46.70
60848;DHT22;46681;47.696;9.140;2022-09-12T16:06:58;25.60;46.30
60848;DHT22;46681;47.696;9.140;2022-09-12T16:09:28;25.70;46.40
60848;DHT22;46681;47.696;9.140;2022-09-12T16:11:57;25.60;46.20
60848;DHT22;46681;47.696;9.140;2022-09-12T16:14:26;25.60;46.10
60848;DHT22;46681;47.696;9.140;2022-09-12T16:16:58;25.60;46.20
60848;DHT22;46681;47.696;9.140;2022-09-12T16:19:26;25.50;46.10
60848;DHT22;46681;47.696;9.140;2022-09-12T16:22:00;25.50;46.20
60848;DHT22;46681;47.696;9.140;2022-09-12T16:24:32;25.50;46.40
60848;DHT22;46681;47.696;9.140;2022-09-12T16:26:59;25.40;46.20
60848;DHT22;46681;47.696;9.140;2022-09-12T16:29:25;25.30;46.50
60848;DHT22;46681;47.696;9.140;2022-09-12T16:31:55;25.30;46.60
60848;DHT22;46681;47.696;9.140;2022-09-12T16:34:33;25.20;46.70
60848;DHT22;46681;47.696;9.140;2022-09-12T16:37:00;25.20;46.70
60848;DHT22;46681;47.696;9.140;2022-09-12T16:39:28;25.20;46.90
60848;DHT22;46681;47.696;9.140;2022-09-12T16:41:54;25.10;47.30
60848;DHT22;46681;47.696;9.140;2022-09-12T16:44:24;25.10;47.60
60848;DHT22;46681;47.696;9.140;2022-09-12T16:46:52;25.00;47.80
60848;DHT22;46681;47.696;9.140;2022-09-12T16:49:25;25.00;48.10
60848;DHT22;46681;47.696;9.140;2022-09-12T16:52:26;24.90;48.30
60848;DHT22;46681;47.696;9.140;2022-09-12T16:54:53;24.70;49.30
60848;DHT22;46681;47.696;9.140;2022-09-12T16:57:26;24.70;49.20
60848;DHT22;46681;47.696;9.140;2022-09-12T16:59:52;24.70;49.20
60848;DHT22;46681;47.696;9.140;2022-09-12T17:02:17;24.70;49.30
60848;DHT22;46681;47.696;9.140;2022-09-12T17:04:47;24.70;49.20
60848;DHT22;46681;47.696;9.140;2022-09-12T17:07:18;24.60;49.30
60848;DHT22;46681;47.696;9.140;2022-09-12T17:09:46;24.60;49.30
60848;DHT22;46681;47.696;9.140;2022-09-12T17:12:20;24.60;49.50
60848;DHT22;46681;47.696;9.140;2022-09-12T17:15:04;24.50;49.50
60848;DHT22;46681;47.696;9.140;2022-09-12T17:17:36;24.50;49.70
60848;DHT22;46681;47.696;9.140;2022-09-12T17:20:13;24.40;49.90
60848;DHT22;46681;47.696;9.140;2022-09-12T17:22:47;24.40;50.00
60848;DHT22;46681;47.696;9.140;2022-09-12T17:25:14;24.30;50.20
60848;DHT22;46681;47.696;9.140;2022-09-12T17:27:49;24.30;50.20
60848;DHT22;46681;47.696;9.140;2022-09-12T17:30:22;24.20;50.30
60848;DHT22;46681;47.696;9.140;2022-09-12T17:32:55;24.20;50.40
60848;DHT22;46681;47.696;9.140;2022-09-12T17:35:27;24.10;50.50
60848;DHT22;46681;47.696;9.140;2022-09-12T17:37:59;24.00;50.80
60848;DHT22;46681;47.696;9.140;2022-09-12T17:40:30;23.90;50.90
60848;DHT22;46681;47.696;9.140;2022-09-12T17:42:56;23.90;51.00
60848;DHT22;46681;47.696;9.140;2022-09-12T17:45:25;23.80;51.10
60848;DHT22;46681;47.696;9.140;2022-09-12T17:47:58;23.70;51.20
60848;DHT22;46681;47.696;9.140;2022-09-12T17:50:46;23.70;51.40
60848;DHT22;46681;47.696;9.140;2022-09-12T17:53:12;23.60;51.40
60848;DHT22;46681;47.696;9.140;2022-09-12T17:55:37;23.50;51.80
60848;DHT22;46681;47.696;9.140;2022-09-12T17:58:11;23.50;52.00
60848;DHT22;46681;47.696;9.140;2022-09-12T18:00:39;23.40;51.80
60848;DHT22;46681;47.696;9.140;2022-09-12T18:03:04;23.30;52.10
60848;DHT22;46681;47.696;9.140;2022-09-12T18:05:43;23.30;52.10
60848;DHT22;46681;47.696;9.140;2022-09-12T18:08:23;23.20;52.20
60848;DHT22;46681;47.696;9.140;2022-09-12T18:11:06;23.10;52.10
60848;DHT22;46681;47.696;9.140;2022-09-12T18:13:41;23.10;52.30
60848;DHT22;46681;47.696;9.140;2022-09-12T18:16:14;23.00;52.20
60848;DHT22;46681;47.696;9.140;2022-09-12T18:18:42;22.90;52.40
60848;DHT22;46681;47.696;9.140;2022-09-12T18:21:12;22.90;52.40
60848;DHT22;46681;47.696;9.140;2022-09-12T18:23:51;22.80;52.50
60848;DHT22;46681;47.696;9.140;2022-09-12T18:26:29;22.70;52.70
60848;DHT22;46681;47.696;9.140;2022-09-12T18:29:05;22.60;52.70
60848;DHT22;46681;47.696;9.140;2022-09-12T18:31:50;22.50;52.70
60848;DHT22;46681;47.696;9.140;2022-09-12T18:34:22;22.50;53.00
60848;DHT22;46681;47.696;9.140;2022-09-12T18:36:50;22.40;53.10
60848;DHT22;46681;47.696;9.140;2022-09-12T18:39:20;22.30;53.20
60848;DHT22;46681;47.696;9.140;2022-09-12T18:41:56;22.30;53.40
60848;DHT22;46681;47.696;9.140;2022-09-12T18:44:22;22.20;53.60
60848;DHT22;46681;47.696;9.140;2022-09-12T18:46:54;22.10;53.70
60848;DHT22;46681;47.696;9.140;2022-09-12T18:49:21;22.10;53.80
60848;DHT22;46681;47.696;9.140;2022-09-12T18:52:05;22.00;54.00
60848;DHT22;46681;47.696;9.140;2022-09-12T18:54:38;22.00;54.10
60848;DHT22;46681;47.696;9.140;2022-09-12T18:57:06;21.90;54.10
60848;DHT22;46681;47.696;9.140;2022-09-12T18:59:36;21.80;54.10
60848;DHT22;46681;47.696;9.140;2022-09-12T19:02:03;21.70;54.10